createdAt,value
2019-03-20T00:00:08.682Z,102763.41
2019-03-20T00:02:36.877Z,102756.61
2019-03-20T00:05:06.113Z,102751.97
2019-03-20T00:07:34.319Z,102762.66
2019-03-20T00:10:02.540Z,102777.31
2019-03-20T00:12:30.729Z,102774.30
2019-03-20T00:14:58.761Z,102766.90
2019-03-20T00:17:27.726Z,102765.98
2019-03-20T00:19:55.945Z,102761.13
2019-03-20T00:22:24.148Z,102764.17
2019-03-20T00:24:52.356Z,102761.13
2019-03-20T00:27:20.559Z,102761.80
2019-03-20T00:29:48.778Z,102758.14
2019-03-20T00:32:16.977Z,102762.02
2019-03-20T00:34:45.179Z,102759.62
2019-03-20T00:37:13.392Z,102762.59
2019-03-20T00:39:41.595Z,102755.76
2019-03-20T00:42:09.810Z,102740.80
2019-03-20T00:44:38.008Z,102741.48
2019-03-20T00:47:06.217Z,102744.19
2019-03-20T00:49:34.421Z,102742.42
2019-03-20T00:52:02.624Z,102751.32
2019-03-20T00:54:30.832Z,102753.89
2019-03-20T00:56:59.038Z,102749.89
2019-03-20T00:59:27.256Z,102752.30
2019-03-20T01:01:55.456Z,102743.12
2019-03-20T01:04:23.668Z,102747.31
2019-03-20T01:06:51.862Z,102747.59
2019-03-20T01:09:20.072Z,102748.73
2019-03-20T01:11:48.272Z,102744.27
2019-03-20T01:14:16.492Z,102741.89
2019-03-20T01:16:44.696Z,102738.71
2019-03-20T01:19:12.979Z,102739.47
2019-03-20T01:21:41.197Z,102736.89
2019-03-20T01:24:09.398Z,102731.98
2019-03-20T01:26:37.619Z,102730.53
2019-03-20T01:29:05.807Z,102731.41
2019-03-20T01:31:34.024Z,102738.19
2019-03-20T01:34:02.225Z,102738.73
2019-03-20T01:36:30.443Z,102737.81
2019-03-20T01:38:58.638Z,102738.28
2019-03-20T01:41:37.408Z,102737.41
2019-03-20T01:43:56.775Z,102734.70
2019-03-20T01:46:24.969Z,102731.34
2019-03-20T01:48:53.184Z,102724.09
2019-03-20T01:51:22.025Z,102721.45
2019-03-20T01:53:50.235Z,102709.81
2019-03-20T01:56:18.434Z,102719.70
2019-03-20T01:58:46.888Z,102725.05
2019-03-20T02:01:15.087Z,102723.62
2019-03-20T02:03:43.296Z,102719.83
2019-03-20T02:06:11.495Z,102715.76
2019-03-20T02:08:39.713Z,102708.41
2019-03-20T02:11:07.914Z,102703.98
2019-03-20T02:13:36.110Z,102698.02
2019-03-20T02:16:04.317Z,102697.95
2019-03-20T02:18:32.511Z,102690.59
2019-03-20T02:21:00.736Z,102693.55
2019-03-20T02:23:28.933Z,102694.91
2019-03-20T02:25:57.141Z,102690.84
2019-03-20T02:28:25.339Z,102684.33
2019-03-20T02:30:53.549Z,102683.66
2019-03-20T02:33:21.794Z,102682.16
2019-03-20T02:35:51.757Z,102687.52
2019-03-20T02:38:19.872Z,102680.47
2019-03-20T02:40:48.095Z,102683.98
2019-03-20T02:43:16.292Z,102685.20
2019-03-20T02:45:44.503Z,102673.72
2019-03-20T02:48:12.705Z,102672.66
2019-03-20T02:50:40.907Z,102671.30
2019-03-20T02:53:09.116Z,102663.57
2019-03-20T02:55:37.314Z,102675.22
2019-03-20T02:58:05.524Z,102669.16
2019-03-20T03:00:33.949Z,102669.92
2019-03-20T03:03:02.185Z,102673.44
2019-03-20T03:05:30.355Z,102672.08
2019-03-20T03:07:59.297Z,102671.13
2019-03-20T03:10:27.497Z,102666.19
2019-03-20T03:12:55.725Z,102670.17
2019-03-20T03:15:23.918Z,102665.08
2019-03-20T03:17:52.133Z,102672.81
2019-03-20T03:20:20.334Z,102665.70
2019-03-20T03:22:48.534Z,102662.05
2019-03-20T03:25:16.759Z,102663.32
2019-03-20T03:27:44.950Z,102659.02
2019-03-20T03:30:14.791Z,102658.91
2019-03-20T03:32:43.189Z,102654.03
2019-03-20T03:35:16.797Z,102650.84
2019-03-20T03:37:41.306Z,102649.12
2019-03-20T03:40:12.515Z,102657.67
2019-03-20T03:42:40.712Z,102654.52
2019-03-20T03:45:11.258Z,102656.46
2019-03-20T03:47:39.457Z,102655.79
2019-03-20T03:50:08.708Z,102666.33
2019-03-20T03:52:36.993Z,102669.28
2019-03-20T03:55:06.733Z,102667.53
2019-03-20T03:57:35.165Z,102669.77
2019-03-20T04:00:03.529Z,102667.84
2019-03-20T04:02:31.748Z,102662.57
2019-03-20T04:04:59.957Z,102655.08
2019-03-20T04:07:28.156Z,102659.55
2019-03-20T04:09:56.357Z,102659.47
2019-03-20T04:12:24.589Z,102660.23
2019-03-20T04:14:52.782Z,102653.69
2019-03-20T04:17:26.808Z,102660.47
2019-03-20T04:19:55.009Z,102658.88
2019-03-20T04:22:23.233Z,102663.22
2019-03-20T04:24:51.429Z,102669.59
2019-03-20T04:27:19.646Z,102667.03
2019-03-20T04:29:47.839Z,102667.31
2019-03-20T04:32:17.321Z,102667.06
2019-03-20T04:34:45.430Z,102664.14
2019-03-20T04:37:13.876Z,102663.42
2019-03-20T04:39:42.075Z,102661.26
2019-03-20T04:42:10.300Z,102661.11
2019-03-20T04:44:38.495Z,102660.70
2019-03-20T04:47:06.699Z,102664.50
2019-03-20T04:49:34.918Z,102659.41
2019-03-20T04:52:03.112Z,102655.41
2019-03-20T04:54:31.325Z,102662.86
2019-03-20T04:56:59.520Z,102663.57
2019-03-20T04:59:27.740Z,102662.29
2019-03-20T05:01:55.943Z,102659.66
2019-03-20T05:04:24.144Z,102648.81
2019-03-20T05:06:58.870Z,102645.14
2019-03-20T05:09:22.283Z,102639.44
2019-03-20T05:11:51.233Z,102639.04
2019-03-20T05:14:19.438Z,102645.41
2019-03-20T05:16:47.650Z,102640.55
2019-03-20T05:19:15.853Z,102641.20
2019-03-20T05:21:44.069Z,102641.33
2019-03-20T05:24:12.280Z,102644.49
2019-03-20T05:26:40.479Z,102644.42
2019-03-20T05:29:08.693Z,102653.60
2019-03-20T05:31:36.905Z,102645.67
2019-03-20T05:34:05.123Z,102644.63
2019-03-20T05:36:33.320Z,102655.72
2019-03-20T05:39:01.542Z,102656.28
2019-03-20T05:41:29.737Z,102649.22
2019-03-20T05:43:57.942Z,102646.75
2019-03-20T05:46:26.164Z,102653.09
2019-03-20T05:48:54.370Z,102654.14
2019-03-20T05:51:22.586Z,102652.50
2019-03-20T05:53:50.798Z,102653.13
2019-03-20T05:56:19.012Z,102651.57
2019-03-20T05:58:47.213Z,102653.08
2019-03-20T06:01:15.436Z,102652.44
2019-03-20T06:03:43.641Z,102655.11
2019-03-20T06:06:11.843Z,102649.44
2019-03-20T06:08:40.305Z,102639.69
2019-03-20T06:11:08.521Z,102649.59
2019-03-20T06:13:36.727Z,102652.26
2019-03-20T06:16:04.933Z,102652.09
2019-03-20T06:18:33.156Z,102652.33
2019-03-20T06:21:01.349Z,102647.61
2019-03-20T06:23:29.553Z,102654.11
2019-03-20T06:25:57.787Z,102655.12
2019-03-20T06:28:25.977Z,102662.02
2019-03-20T06:30:54.184Z,102658.92
2019-03-20T06:33:22.381Z,102659.38
2019-03-20T06:35:50.600Z,102658.59
2019-03-20T06:38:18.810Z,102669.68
2019-03-20T06:40:47.026Z,102663.94
2019-03-20T06:43:15.486Z,102668.07
2019-03-20T06:45:43.705Z,102661.53
2019-03-20T06:48:11.916Z,102667.59
2019-03-20T06:50:40.136Z,102666.63
2019-03-20T06:53:08.339Z,102667.33
2019-03-20T06:55:36.553Z,102657.19
2019-03-20T06:58:04.775Z,102661.88
2019-03-20T07:00:42.131Z,102657.58
2019-03-20T07:03:28.325Z,102664.28
2019-03-20T07:06:11.532Z,102658.58
2019-03-20T07:08:45.886Z,102654.66
2019-03-20T07:11:14.028Z,102657.03
2019-03-20T07:13:42.231Z,102658.61
2019-03-20T07:16:10.452Z,102661.19
2019-03-20T07:18:38.652Z,102655.95
2019-03-20T07:21:06.871Z,102652.09
2019-03-20T07:23:35.072Z,102654.48
2019-03-20T07:26:03.283Z,102651.30
2019-03-20T07:28:31.497Z,102659.05
2019-03-20T07:30:59.699Z,102657.75
2019-03-20T07:33:27.913Z,102669.14
2019-03-20T07:35:56.696Z,102667.94
2019-03-20T07:38:24.907Z,102669.75
2019-03-20T07:40:53.112Z,102668.83
2019-03-20T07:43:21.340Z,102661.98
2019-03-20T07:45:49.532Z,102666.17
2019-03-20T07:48:22.494Z,102676.72
2019-03-20T07:50:47.676Z,102671.87
2019-03-20T07:53:18.372Z,102682.77
2019-03-20T07:55:46.577Z,102688.12
2019-03-20T07:58:15.240Z,102693.86
2019-03-20T08:00:43.455Z,102692.20
2019-03-20T08:03:11.658Z,102693.47
2019-03-20T08:05:40.608Z,102693.12
2019-03-20T08:08:08.810Z,102696.44
2019-03-20T08:10:37.045Z,102692.98
2019-03-20T08:13:05.249Z,102688.31
2019-03-20T08:15:35.166Z,102690.89
2019-03-20T08:18:03.483Z,102692.19
2019-03-20T08:20:31.816Z,102696.80
2019-03-20T08:23:00.028Z,102687.55
2019-03-20T08:25:28.229Z,102682.57
2019-03-20T08:27:56.449Z,102681.92
2019-03-20T08:30:24.653Z,102687.86
2019-03-20T08:32:53.606Z,102694.09
2019-03-20T08:35:21.816Z,102693.02
2019-03-20T08:37:50.019Z,102696.04
2019-03-20T08:40:18.861Z,102693.33
2019-03-20T08:42:47.068Z,102699.75
2019-03-20T08:45:16.739Z,102694.52
2019-03-20T08:47:44.941Z,102694.12
2019-03-20T08:50:22.075Z,102695.67
2019-03-20T08:52:50.276Z,102691.02
2019-03-20T08:55:19.225Z,102688.27
2019-03-20T08:57:47.440Z,102702.03
2019-03-20T09:00:19.657Z,102716.17
2019-03-20T09:02:47.949Z,102717.92
2019-03-20T09:05:16.152Z,102706.22
2019-03-20T09:07:47.534Z,102703.47
2019-03-20T09:10:24.040Z,102702.40
2019-03-20T09:12:52.220Z,102707.94
2019-03-20T09:15:20.870Z,102701.84
2019-03-20T09:17:49.073Z,102702.92
2019-03-20T09:20:17.919Z,102686.00
2019-03-20T09:22:46.123Z,102698.72
2019-03-20T09:25:17.591Z,102712.77
2019-03-20T09:27:45.793Z,102707.48
2019-03-20T09:30:16.611Z,102715.11
2019-03-20T09:32:44.816Z,102711.47
2019-03-20T09:35:13.494Z,102715.50
2019-03-20T09:37:51.361Z,102723.27
2019-03-20T09:40:16.279Z,102724.42
2019-03-20T09:42:44.482Z,102722.50
2019-03-20T09:45:17.584Z,102722.29
2019-03-20T09:47:45.792Z,102722.89
2019-03-20T09:50:15.552Z,102720.86
2019-03-20T09:52:43.755Z,102720.86
2019-03-20T09:55:15.905Z,102712.94
2019-03-20T09:57:44.118Z,102717.84
2019-03-20T10:00:26.371Z,102719.56
2019-03-20T10:02:54.637Z,102714.30
2019-03-20T10:05:22.839Z,102710.38
2019-03-20T10:07:51.055Z,102718.95
2019-03-20T10:10:29.216Z,102708.51
2019-03-20T10:12:57.444Z,102714.36
2019-03-20T10:15:31.893Z,102706.95
2019-03-20T10:18:00.112Z,102720.89
2019-03-20T10:20:28.381Z,102714.87
2019-03-20T10:22:56.599Z,102724.02
2019-03-20T10:25:25.466Z,102725.00
2019-03-20T10:27:53.686Z,102719.77
2019-03-20T10:30:23.684Z,102719.77
2019-03-20T10:32:51.937Z,102725.61
2019-03-20T10:35:20.110Z,102723.55
2019-03-20T10:37:48.313Z,102727.75
2019-03-20T10:40:26.373Z,102733.05
2019-03-20T10:42:54.831Z,102734.23
2019-03-20T10:45:24.757Z,102744.58
2019-03-20T10:47:53.555Z,102745.17
2019-03-20T10:50:25.173Z,102765.84
2019-03-20T10:52:53.550Z,102765.84
2019-03-20T10:55:21.768Z,102779.71
2019-03-20T10:57:49.967Z,102779.71
2019-03-20T11:00:20.734Z,102786.23
2019-03-20T11:02:48.959Z,102778.23
2019-03-20T11:05:17.496Z,102788.68
2019-03-20T11:07:45.719Z,102794.35
2019-03-20T11:10:17.179Z,102793.78
2019-03-20T11:12:45.660Z,102793.78
2019-03-20T11:15:17.930Z,102794.24
2019-03-20T11:17:46.213Z,102775.23
2019-03-20T11:20:16.072Z,102775.23
2019-03-20T11:22:44.286Z,102798.45
2019-03-20T11:25:17.298Z,102801.36
2019-03-20T11:27:45.513Z,102809.17
2019-03-20T11:30:19.610Z,102814.84
2019-03-20T11:32:47.827Z,102808.99
2019-03-20T11:35:16.037Z,102814.64
2019-03-20T11:37:44.257Z,102814.64
2019-03-20T11:40:15.502Z,102816.78
2019-03-20T11:42:43.718Z,102816.78
2019-03-20T11:45:11.915Z,102820.11
2019-03-20T11:47:40.131Z,102815.52
2019-03-20T11:50:14.310Z,102814.44
2019-03-20T11:52:42.522Z,102814.61
2019-03-20T11:55:10.732Z,102814.05
2019-03-20T11:57:38.956Z,102812.20
2019-03-20T12:00:15.509Z,102805.36
2019-03-20T12:02:43.727Z,102803.19
2019-03-20T12:05:12.389Z,102800.39
2019-03-20T12:07:40.599Z,102798.91
2019-03-20T12:10:12.070Z,102806.23
2019-03-20T12:12:40.279Z,102806.23
2019-03-20T12:15:10.232Z,102803.69
2019-03-20T12:17:38.523Z,102804.06
2019-03-20T12:20:13.287Z,102797.33
2019-03-20T12:22:41.560Z,102797.33
2019-03-20T12:25:18.310Z,102800.07
2019-03-20T12:27:46.510Z,102792.45
2019-03-20T12:30:17.155Z,102789.13
2019-03-20T12:32:45.377Z,102789.13
2019-03-20T12:35:15.420Z,102798.32
2019-03-20T12:37:43.639Z,102786.40
2019-03-20T12:40:20.197Z,102776.66
2019-03-20T12:42:48.415Z,102788.34
2019-03-20T12:45:19.424Z,102789.50
2019-03-20T12:47:47.631Z,102780.25
2019-03-20T12:50:15.854Z,102773.11
2019-03-20T12:52:44.072Z,102767.29
2019-03-20T12:55:14.779Z,102767.29
2019-03-20T12:57:42.977Z,102778.05
2019-03-20T13:00:22.589Z,102773.64
2019-03-20T13:02:50.873Z,102772.21
2019-03-20T13:05:19.083Z,102773.47
2019-03-20T13:07:47.303Z,102774.23
2019-03-20T13:10:23.339Z,102765.88
2019-03-20T13:12:51.549Z,102765.88
2019-03-20T13:15:23.994Z,102766.77
2019-03-20T13:17:52.854Z,102776.15
2019-03-20T13:20:21.120Z,102770.75
2019-03-20T13:23:07.241Z,102768.02
2019-03-20T13:25:35.442Z,102764.34
2019-03-20T13:28:03.665Z,102764.34
2019-03-20T13:30:40.734Z,102772.72
2019-03-20T13:33:08.954Z,102767.83
2019-03-20T13:35:37.149Z,102775.83
2019-03-20T13:38:05.632Z,102771.12
2019-03-20T13:40:33.841Z,102775.83
2019-03-20T13:43:02.067Z,102775.05
2019-03-20T13:45:30.271Z,102779.77
2019-03-20T13:47:58.494Z,102779.94
2019-03-20T13:50:26.703Z,102779.94
2019-03-20T13:52:54.921Z,102793.84
2019-03-20T13:55:23.129Z,102793.84
2019-03-20T13:57:51.352Z,102792.68
2019-03-20T14:00:23.572Z,102798.53
2019-03-20T14:02:51.783Z,102795.69
2019-03-20T14:05:20.004Z,102801.05
2019-03-20T14:07:48.209Z,102802.81
2019-03-20T14:10:27.105Z,102802.41
2019-03-20T14:12:55.321Z,102788.73
2019-03-20T14:15:23.550Z,102799.83
2019-03-20T14:17:51.753Z,102806.83
2019-03-20T14:20:24.881Z,102802.84
2019-03-20T14:22:53.082Z,102793.17
2019-03-20T14:25:21.640Z,102805.08
2019-03-20T14:27:50.452Z,102803.22
2019-03-20T14:30:21.925Z,102795.34
2019-03-20T14:32:50.137Z,102802.52
2019-03-20T14:35:18.351Z,102807.20
2019-03-20T14:37:46.562Z,102802.48
2019-03-20T14:40:36.067Z,102802.48
2019-03-20T14:43:00.952Z,102802.24
2019-03-20T14:45:29.180Z,102807.27
2019-03-20T14:47:57.378Z,102804.05
2019-03-20T14:50:26.235Z,102799.67
2019-03-20T14:52:54.693Z,102799.67
2019-03-20T14:55:22.900Z,102803.75
2019-03-20T14:57:51.101Z,102816.67
2019-03-20T15:00:21.518Z,102808.53
2019-03-20T15:02:49.720Z,102820.20
2019-03-20T15:05:17.925Z,102820.20
2019-03-20T15:07:46.141Z,102824.52
2019-03-20T15:10:16.178Z,102834.89
2019-03-20T15:12:44.400Z,102816.39
2019-03-20T15:15:40.802Z,102816.39
2019-03-20T15:18:09.028Z,102826.34
2019-03-20T15:20:37.228Z,102826.34
2019-03-20T15:23:05.435Z,102815.04
2019-03-20T15:25:33.655Z,102826.15
2019-03-20T15:28:01.873Z,102820.02
2019-03-20T15:30:30.671Z,102821.06
2019-03-20T15:32:58.884Z,102814.27
2019-03-20T15:35:27.088Z,102814.27
2019-03-20T15:37:55.316Z,102830.47
2019-03-20T15:40:25.069Z,102830.25
2019-03-20T15:42:53.287Z,102830.25
2019-03-20T15:45:21.494Z,102813.67
2019-03-20T15:47:49.721Z,102824.22
2019-03-20T15:50:25.625Z,102823.72
2019-03-20T15:52:53.851Z,102821.86
2019-03-20T15:55:31.341Z,102821.97
2019-03-20T15:57:59.556Z,102826.95
2019-03-20T16:00:27.764Z,102842.56
2019-03-20T16:03:01.607Z,102826.37
2019-03-20T16:05:29.829Z,102821.33
2019-03-20T16:07:58.042Z,102850.33
2019-03-20T16:10:26.262Z,102850.33
2019-03-20T16:12:54.482Z,102856.30
2019-03-20T16:15:23.513Z,102856.30
2019-03-20T16:17:51.736Z,102857.94
2019-03-20T16:20:19.942Z,102849.95
2019-03-20T16:22:48.172Z,102859.03
2019-03-20T16:25:18.470Z,102861.66
2019-03-20T16:27:46.684Z,102859.63
2019-03-20T16:30:26.074Z,102866.86
2019-03-20T16:32:56.368Z,102866.86
2019-03-20T16:35:24.220Z,102872.66
2019-03-20T16:37:53.167Z,102873.74
2019-03-20T16:40:24.621Z,102873.74
2019-03-20T16:42:52.851Z,102870.59
2019-03-20T16:45:28.633Z,102871.95
2019-03-20T16:47:56.866Z,102869.92
2019-03-20T16:50:25.077Z,102869.92
2019-03-20T16:52:53.327Z,102867.89
2019-03-20T16:55:21.576Z,102878.23
2019-03-20T16:57:49.791Z,102883.31
2019-03-20T17:00:32.029Z,102883.42
2019-03-20T17:03:00.231Z,102894.86
2019-03-20T17:05:29.561Z,102892.72
2019-03-20T17:07:57.781Z,102892.72
2019-03-20T17:10:34.953Z,102890.09
2019-03-20T17:13:03.286Z,102894.64
2019-03-20T17:15:34.065Z,102896.99
2019-03-20T17:18:02.265Z,102900.61
2019-03-20T17:20:30.933Z,102901.09
2019-03-20T17:22:59.081Z,102912.24
2019-03-20T17:25:27.290Z,102910.48
2019-03-20T17:27:55.718Z,102917.92
2019-03-20T17:30:26.115Z,102917.92
2019-03-20T17:32:54.347Z,102920.27
2019-03-20T17:35:22.676Z,102921.63
2019-03-20T17:37:51.161Z,102926.72
2019-03-20T17:40:23.254Z,102922.78
2019-03-20T17:42:51.464Z,102934.14
2019-03-20T17:45:20.927Z,102931.48
2019-03-20T17:47:49.198Z,102924.75
2019-03-20T17:50:28.578Z,102923.00
2019-03-20T17:52:56.896Z,102927.58
2019-03-20T17:55:25.235Z,102928.56
2019-03-20T17:57:53.472Z,102924.95
2019-03-20T18:00:37.523Z,102932.77
2019-03-20T18:03:06.597Z,102932.77
2019-03-20T18:05:35.405Z,102941.56
2019-03-20T18:08:04.605Z,102941.56
2019-03-20T18:10:34.721Z,102942.55
2019-03-20T18:13:02.923Z,102937.66
2019-03-20T18:15:31.161Z,102937.66
2019-03-20T18:17:59.619Z,102938.61
2019-03-20T18:20:27.854Z,102935.27
2019-03-20T18:22:56.075Z,102941.83
2019-03-20T18:25:24.565Z,102941.91
2019-03-20T18:27:53.047Z,102935.17
2019-03-20T18:30:32.009Z,102933.91
2019-03-20T18:33:00.228Z,102927.07
2019-03-20T18:35:28.429Z,102932.15
2019-03-20T18:37:56.626Z,102933.12
2019-03-20T18:40:26.839Z,102945.43
2019-03-20T18:42:55.114Z,102949.14
2019-03-20T18:45:24.075Z,102958.70
2019-03-20T18:47:52.275Z,102962.81
2019-03-20T18:50:21.963Z,102947.98
2019-03-20T18:52:50.177Z,102950.00
2019-03-20T18:55:19.124Z,102961.16
2019-03-20T18:57:47.408Z,102969.05
2019-03-20T19:00:32.807Z,102969.05
2019-03-20T19:03:13.827Z,102982.90
2019-03-20T19:05:56.968Z,102979.67
2019-03-20T19:08:25.189Z,102982.51
2019-03-20T19:10:53.456Z,102980.85
2019-03-20T19:13:21.711Z,102991.30
2019-03-20T19:15:49.979Z,102993.74
2019-03-20T19:18:18.187Z,103002.04
2019-03-20T19:20:46.439Z,103004.34
2019-03-20T19:23:14.619Z,103004.06
2019-03-20T19:25:42.831Z,103004.06
2019-03-20T19:28:11.075Z,103018.41
2019-03-20T19:30:39.293Z,103014.80
2019-03-20T19:33:07.491Z,103013.52
2019-03-20T19:35:35.713Z,103020.25
2019-03-20T19:38:03.922Z,103021.13
2019-03-20T19:40:32.126Z,103023.97
2019-03-20T19:43:00.347Z,103033.05
2019-03-20T19:45:28.550Z,103031.28
2019-03-20T19:47:56.763Z,103026.02
2019-03-20T19:50:24.971Z,103013.39
2019-03-20T19:52:53.193Z,103013.39
2019-03-20T19:55:21.399Z,103025.42
2019-03-20T19:57:50.165Z,103022.31
2019-03-20T20:00:25.097Z,103023.67
2019-03-20T20:02:53.299Z,103020.55
2019-03-20T20:05:22.373Z,103026.08
2019-03-20T20:07:50.584Z,103034.60
2019-03-20T20:10:19.430Z,103034.67
2019-03-20T20:12:47.702Z,103028.03
2019-03-20T20:15:26.877Z,103034.67
2019-03-20T20:17:55.109Z,103034.28
2019-03-20T20:20:36.942Z,103032.42
2019-03-20T20:23:05.175Z,103037.88
2019-03-20T20:25:33.373Z,103028.52
2019-03-20T20:28:01.578Z,103034.77
2019-03-20T20:30:29.791Z,103034.77
2019-03-20T20:32:58.006Z,103029.78
2019-03-20T20:35:26.205Z,103022.47
2019-03-20T20:37:54.433Z,103025.20
2019-03-20T20:40:23.682Z,103021.59
2019-03-20T20:42:51.885Z,103013.49
2019-03-20T20:45:20.163Z,103000.61
2019-03-20T20:47:48.320Z,103011.15
2019-03-20T20:50:17.170Z,103011.15
2019-03-20T20:52:45.734Z,103021.30
2019-03-20T20:55:21.388Z,103020.13
2019-03-20T20:57:49.601Z,103024.71
2019-03-20T21:00:20.209Z,103025.78
2019-03-20T21:02:48.425Z,103021.30
2019-03-20T21:05:16.638Z,103019.44
2019-03-20T21:07:44.848Z,103019.02
2019-03-20T21:10:15.570Z,103019.02
2019-03-20T21:12:55.197Z,103006.72
2019-03-20T21:15:19.312Z,103006.72
2019-03-20T21:17:53.266Z,103014.72
2019-03-20T21:20:21.474Z,103014.23
2019-03-20T21:23:25.813Z,103017.84
2019-03-20T21:25:54.034Z,103020.28
2019-03-20T21:28:58.748Z,103034.14
2019-03-20T21:31:30.477Z,103034.14
2019-03-20T21:34:08.003Z,103023.80
2019-03-20T21:36:54.074Z,103038.47
2019-03-20T21:39:22.274Z,103038.47
2019-03-20T21:42:08.662Z,103043.54
2019-03-20T21:45:00.329Z,103042.56
2019-03-20T21:47:34.291Z,103042.17
2019-03-20T21:50:11.348Z,103040.22
2019-03-20T21:52:39.586Z,103038.86
2019-03-20T21:55:20.058Z,103038.86
2019-03-20T21:57:54.245Z,103031.64
2019-03-20T22:00:57.095Z,103038.86
2019-03-20T22:03:25.324Z,103025.55
2019-03-20T22:06:08.698Z,103029.39
2019-03-20T22:08:36.917Z,103031.44
2019-03-20T22:11:24.515Z,103031.44
2019-03-20T22:13:58.761Z,103029.59
2019-03-20T22:16:32.848Z,103035.05
2019-03-20T22:19:20.826Z,103035.05
2019-03-20T22:22:08.512Z,103036.33
2019-03-20T22:25:11.257Z,103043.55
2019-03-20T22:27:42.718Z,103029.39
2019-03-20T22:30:10.940Z,103048.22
2019-03-20T22:32:42.411Z,103039.73
2019-03-20T22:35:25.726Z,103039.50
2019-03-20T22:37:54.976Z,103038.95
2019-03-20T22:40:48.929Z,103038.95
2019-03-20T22:43:30.153Z,103030.66
2019-03-20T22:46:03.942Z,103032.81
2019-03-20T22:48:51.970Z,103038.66
2019-03-20T22:51:38.064Z,103042.08
2019-03-20T22:54:25.822Z,103050.99
2019-03-20T22:57:09.008Z,103050.41
2019-03-20T22:59:37.465Z,103049.83
2019-03-20T23:02:16.795Z,103036.66
2019-03-20T23:04:48.259Z,103036.66
2019-03-20T23:07:16.711Z,103037.36
2019-03-20T23:09:44.919Z,103037.36
2019-03-20T23:12:13.983Z,103038.14
2019-03-20T23:14:42.264Z,103029.27
2019-03-20T23:17:10.724Z,103033.66
2019-03-20T23:19:40.167Z,103033.98
2019-03-20T23:22:08.724Z,103029.29
2019-03-20T23:24:37.011Z,103038.75
2019-03-20T23:27:08.634Z,103036.80
2019-03-20T23:29:36.847Z,103037.78
2019-03-20T23:32:05.054Z,103045.00
2019-03-20T23:34:33.277Z,103045.00
2019-03-20T23:37:01.486Z,103044.41
2019-03-20T23:39:29.710Z,103044.41
2019-03-20T23:41:57.910Z,103046.20
2019-03-20T23:44:26.125Z,103037.02
2019-03-20T23:46:54.333Z,103033.73
2019-03-20T23:49:24.992Z,103041.84
2019-03-20T23:51:54.034Z,103028.83
2019-03-20T23:54:26.251Z,103028.83
2019-03-20T23:56:54.444Z,103040.17
2019-03-20T23:59:22.660Z,103038.42
